KHTS

Tri-State / Milton J Ferguson Field Airport

Huntington, West Virginia, USA
KHTS 240221Z 2402/2424 35004KT P6SM SKC FM240900 VRB03KT P6SM FEW250 FM241700 01004KT P6SM FEW040 FM242000 01005KT P6SM SKC
Issued Valid From Valid To
Oct-24 @ 02:21 UTC
(3 hours ago)
Oct-24 @ 02:00 UTC
(3 hours ago)
Oct-25 @ 00:00 UTC
(in 19 hours)
Oct-24 @ 02:00 to Oct-24 @ 09:00
KHTS 240221Z 2402/2424 35004KT P6SM SKC
Wind Visibility Clouds
350° at 4 knots Greater than 6 miles
  • Clear skies
From Oct-24 @ 09:00 to Oct-24 @ 17:00
FM240900 VRB03KT P6SM FEW250
Wind Visibility Clouds
Variable at 3 knots Greater than 6 miles
  • Few at 25,000' AGL
From Oct-24 @ 17:00 to Oct-24 @ 20:00
FM241700 01004KT P6SM FEW040
Wind Visibility Clouds
10° at 4 knots Greater than 6 miles
  • Few at 4,000' AGL
From Oct-24 @ 20:00 to Oct-25 @ 00:00
FM242000 01005KT P6SM SKC
Wind Visibility Clouds
10° at 5 knots Greater than 6 miles
  • Clear skies
KHTS 240221Z 2402/2424 35004KT P6SM SKC FM240900 VRB03KT P6SM FEW250 FM241700 01004KT P6SM FEW040 FM242000 01005KT P6SM SKC
Issued Oct-24 @ 02:21 UTC
(3 hours ago)
Valid From Oct-24 @ 02:00 UTC
(3 hours ago)
Valid To Oct-25 @ 00:00 UTC
(in 19 hours)
Oct-24 @ 02:00 - Oct-24 @ 09:00
Wind Visibility
350° at 4 knots Greater than 6 miles
Clouds
  • Clear skies
From Oct-24 @ 09:00 - Oct-24 @ 17:00
Wind Visibility
Variable at 3 knots Greater than 6 miles
Clouds
  • Few at 25,000' AGL
From Oct-24 @ 17:00 - Oct-24 @ 20:00
Wind Visibility
10° at 4 knots Greater than 6 miles
Clouds
  • Few at 4,000' AGL
From Oct-24 @ 20:00 - Oct-25 @ 00:00
Wind Visibility
10° at 5 knots Greater than 6 miles
Clouds
  • Clear skies